Time;durP1;ratioP1;P1;durP2;ratioP2;P2;SDS_P1;SDS_P2;PMS_P1;PMS_P2;Temp;Humidity;BMP_temperature;BMP_pressure;BME280_temperature;BME280_humidity;BME280_pressure;Samples;Min_cycle;Max_cycle;Signal;HPM_P1;HPM_P2
2020/12/09 00:00:05;;;;;;;60.25;35.25;;;3.40;99.90;;;;;;4880789;29;20915;-91
2020/12/09 00:02:31;;;;;;;54.73;31.20;;;3.30;99.90;;;;;;4881239;29;20264;-93
2020/12/09 00:04:57;;;;;;;59.10;31.73;;;3.30;99.90;;;;;;4881130;29;20547;-90
2020/12/09 00:07:24;;;;;;;54.60;30.53;;;3.30;99.90;;;;;;4881628;29;20534;-92
2020/12/09 00:09:50;;;;;;;50.50;30.00;;;3.20;99.90;;;;;;4881786;29;20487;-89
2020/12/09 00:12:17;;;;;;;50.47;28.20;;;3.00;99.90;;;;;;4880828;29;20458;-92
2020/12/09 00:14:43;;;;;;;56.77;28.90;;;3.00;99.90;;;;;;4881457;29;21004;-93
2020/12/09 00:17:11;;;;;;;59.73;29.17;;;2.90;99.90;;;;;;4881075;29;20459;-90
2020/12/09 00:19:37;;;;;;;51.43;28.47;;;2.90;99.90;;;;;;4865219;29;20512;-89
2020/12/09 00:22:04;;;;;;;51.50;27.50;;;2.90;99.90;;;;;;4880991;29;20551;-90
2020/12/09 00:24:30;;;;;;;54.77;28.23;;;2.90;99.90;;;;;;4881147;29;20825;-90
2020/12/09 00:26:57;;;;;;;47.30;26.77;;;3.00;99.90;;;;;;4881535;29;20467;-93
2020/12/09 00:29:23;;;;;;;50.13;25.73;;;2.90;99.90;;;;;;4880785;29;20483;-91
2020/12/09 00:31:50;;;;;;;52.75;33.40;;;2.90;99.90;;;;;;4880260;29;20455;-90
2020/12/09 00:34:17;;;;;;;45.27;26.57;;;3.00;99.90;;;;;;4881171;29;20193;-91
2020/12/09 00:36:43;;;;;;;44.10;25.33;;;3.10;99.90;;;;;;4882293;29;20483;-90
2020/12/09 00:39:10;;;;;;;44.70;23.93;;;2.90;99.90;;;;;;4884695;29;20426;-90
2020/12/09 00:41:36;;;;;;;41.97;23.50;;;2.90;99.90;;;;;;4884687;29;20475;-91
2020/12/09 00:44:03;;;;;;;42.57;22.73;;;2.70;99.90;;;;;;4884462;29;20436;-91
2020/12/09 00:46:29;;;;;;;43.33;23.40;;;2.80;99.90;;;;;;4884564;29;20438;-92
2020/12/09 00:48:56;;;;;;;43.50;23.77;;;2.80;99.90;;;;;;4890848;29;20462;-93
2020/12/09 00:51:24;;;;;;;44.63;24.17;;;2.80;99.90;;;;;;4893898;29;20478;-90
2020/12/09 00:53:51;;;;;;;51.47;25.03;;;2.80;99.90;;;;;;4888157;29;20456;-91
2020/12/09 00:56:18;;;;;;;47.87;23.60;;;2.70;99.90;;;;;;4884265;29;20466;-92
2020/12/09 00:58:44;;;;;;;50.37;25.63;;;2.60;99.90;;;;;;4867660;29;20503;-90
2020/12/09 01:01:13;;;;;;;49.43;23.33;;;2.60;99.90;;;;;;4883898;29;20476;-89
2020/12/09 01:03:39;;;;;;;52.40;26.07;;;2.60;99.90;;;;;;4884670;29;20451;-90
2020/12/09 01:06:06;;;;;;;45.57;25.43;;;2.70;99.90;;;;;;4884839;29;20455;-90
2020/12/09 01:08:35;;;;;;;52.33;24.10;;;2.70;99.90;;;;;;4867882;29;20452;-90
2020/12/09 01:11:02;;;;;;;52.13;26.33;;;2.60;99.90;;;;;;4883792;29;20987;-91
2020/12/09 01:13:29;;;;;;;50.33;25.53;;;2.70;99.90;;;;;;4883793;29;20452;-91
2020/12/09 01:15:55;;;;;;;50.57;25.07;;;2.70;99.90;;;;;;4883927;29;20446;-90
2020/12/09 01:18:22;;;;;;;55.03;24.67;;;2.80;99.90;;;;;;4883801;29;20525;-91
2020/12/09 01:20:48;;;;;;;56.33;25.93;;;2.80;99.90;;;;;;4884071;29;20903;-92
2020/12/09 01:23:15;;;;;;;48.47;23.37;;;2.80;99.90;;;;;;4883388;29;20568;-93
2020/12/09 01:25:42;;;;;;;54.20;24.33;;;2.90;99.90;;;;;;4884042;29;20475;-92
2020/12/09 01:28:09;;;;;;;56.83;25.27;;;3.00;99.90;;;;;;4883686;29;20490;-93
2020/12/09 01:30:35;;;;;;;55.57;25.33;;;2.90;99.90;;;;;;4883637;29;20557;-92
2020/12/09 01:33:02;;;;;;;59.57;25.73;;;2.80;99.90;;;;;;4884048;29;20456;-91
2020/12/09 01:35:29;;;;;;;60.67;24.57;;;2.80;99.90;;;;;;4883762;29;20789;-91
2020/12/09 01:37:55;;;;;;;65.10;26.73;;;2.90;99.90;;;;;;4883592;29;20495;-92
2020/12/09 01:40:22;;;;;;;64.33;26.10;;;2.90;99.90;;;;;;4883222;29;20467;-90
2020/12/09 01:42:50;;;;;;;58.77;26.27;;;3.00;99.90;;;;;;4883972;29;20458;-91
2020/12/09 01:45:17;;;;;;;61.93;26.70;;;2.80;99.90;;;;;;4883494;29;20432;-90
2020/12/09 01:47:45;;;;;;;62.83;29.00;;;2.70;99.90;;;;;;4882891;29;20448;-91
2020/12/09 01:50:13;;;;;;;60.93;25.57;;;2.70;99.90;;;;;;4883959;29;20499;-92
2020/12/09 01:52:39;;;;;;;66.13;26.70;;;2.70;99.90;;;;;;4883883;29;20473;-89
2020/12/09 01:55:06;;;;;;;62.20;26.80;;;2.70;99.90;;;;;;4884053;29;20458;-92
2020/12/09 01:57:32;;;;;;;65.27;27.27;;;2.60;99.90;;;;;;4883172;29;20483;-90
2020/12/09 01:59:59;;;;;;;58.50;26.93;;;2.80;99.90;;;;;;4883497;29;20444;-92
2020/12/09 02:02:26;;;;;;;68.67;27.87;;;2.80;99.90;;;;;;4883033;29;20539;-91
2020/12/09 02:04:53;;;;;;;56.67;24.87;;;2.90;99.90;;;;;;4883273;29;20810;-93
2020/12/09 02:07:22;;;;;;;54.97;25.70;;;2.90;99.90;;;;;;4883323;29;20472;-89
2020/12/09 02:10:00;;;;;;;50.57;22.70;;;2.90;99.90;;;;;;4883306;29;20495;-92
2020/12/09 02:12:26;;;;;;;48.33;22.10;;;3.10;99.90;;;;;;4884060;29;20820;-91
2020/12/09 02:14:53;;;;;;;56.40;22.83;;;3.10;99.90;;;;;;4883360;29;20436;-93
2020/12/09 02:17:20;;;;;;;45.90;21.37;;;3.10;99.90;;;;;;4866568;29;20463;-91
2020/12/09 02:19:47;;;;;;;46.80;22.23;;;3.10;99.90;;;;;;4883606;29;20448;-90
2020/12/09 02:22:14;;;;;;;46.57;21.93;;;3.00;99.90;;;;;;4883766;29;20538;-91
2020/12/09 02:24:40;;;;;;;55.80;23.10;;;3.00;99.90;;;;;;4883213;29;20459;-90
2020/12/09 02:27:07;;;;;;;50.17;22.53;;;2.90;99.90;;;;;;4883067;29;20477;-91
2020/12/09 02:29:34;;;;;;;48.73;22.00;;;2.90;99.90;;;;;;4883462;29;20525;-92
2020/12/09 02:32:00;;;;;;;52.33;22.43;;;2.80;99.90;;;;;;4882961;29;20490;-92
2020/12/09 02:34:27;;;;;;;50.90;20.70;;;2.80;99.90;;;;;;4883213;29;20547;-91
2020/12/09 02:36:53;;;;;;;45.57;20.93;;;2.80;99.90;;;;;;4884213;29;20452;-92
2020/12/09 02:39:31;;;;;;;49.73;22.07;;;2.70;99.90;;;;;;4868228;29;20466;-93
2020/12/09 02:41:57;;;;;;;48.13;21.63;;;2.60;99.90;;;;;;4882761;29;20468;-92
2020/12/09 02:44:24;;;;;;;45.23;20.80;;;2.70;99.90;;;;;;4883043;29;20448;-89
2020/12/09 02:46:50;;;;;;;50.93;21.83;;;2.70;99.90;;;;;;4882646;29;20526;-90
2020/12/09 02:49:16;;;;;;;42.90;21.37;;;2.90;99.90;;;;;;4882320;29;20436;-92
2020/12/09 02:51:43;;;;;;;40.90;20.10;;;2.90;99.90;;;;;;4882022;29;20475;-91
2020/12/09 02:54:09;;;;;;;37.90;18.57;;;2.80;99.90;;;;;;4865584;29;20455;-93
2020/12/09 02:56:37;;;;;;;32.60;17.37;;;2.50;99.90;;;;;;4882201;29;20511;-93
2020/12/09 02:59:03;;;;;;;33.83;17.57;;;2.50;99.90;;;;;;4882248;29;20463;-91
2020/12/09 03:01:32;;;;;;;32.33;17.67;;;2.40;99.90;;;;;;4882075;29;20987;-92
2020/12/09 03:03:59;;;;;;;33.03;18.73;;;2.50;99.90;;;;;;4882304;29;20428;-91
2020/12/09 03:06:25;;;;;;;34.43;18.80;;;2.60;99.90;;;;;;4882820;29;20444;-89
2020/12/09 03:08:52;;;;;;;31.87;17.77;;;2.60;99.90;;;;;;4882651;29;20451;-92
2020/12/09 03:11:18;;;;;;;31.77;17.17;;;2.70;99.90;;;;;;4881632;29;20499;-92
2020/12/09 03:13:46;;;;;;;28.23;16.60;;;2.50;99.90;;;;;;4882964;29;20444;-90
2020/12/09 03:16:12;;;;;;;29.80;17.63;;;2.40;99.90;;;;;;4882094;29;20460;-90
2020/12/09 03:18:38;;;;;;;30.87;17.47;;;2.30;99.90;;;;;;4882161;29;20996;-89
2020/12/09 03:21:06;;;;;;;27.93;16.00;;;2.30;99.90;;;;;;4882152;29;20503;-90
2020/12/09 03:23:34;;;;;;;30.77;17.53;;;2.30;99.90;;;;;;4881934;29;20816;-94
2020/12/09 03:26:00;;;;;;;30.83;17.07;;;2.30;99.90;;;;;;4881747;29;20515;-90
2020/12/09 03:28:27;;;;;;;28.87;17.17;;;2.30;99.90;;;;;;4881359;29;20466;-92
2020/12/09 03:30:55;;;;;;;26.27;17.47;;;2.20;99.90;;;;;;4881973;29;20871;-91
2020/12/09 03:33:21;;;;;;;30.77;18.03;;;2.10;99.90;;;;;;4881371;29;20802;-90
2020/12/09 03:35:47;;;;;;;29.10;17.77;;;2.20;99.90;;;;;;4882176;29;20462;-93
2020/12/09 03:38:14;;;;;;;30.40;18.33;;;2.20;99.90;;;;;;4881432;29;20462;-91
2020/12/09 03:40:40;;;;;;;29.97;17.70;;;2.20;99.90;;;;;;4881495;29;20474;-93
2020/12/09 03:43:07;;;;;;;39.28;27.30;;;2.30;99.90;;;;;;4880483;29;20974;-90
2020/12/09 03:45:33;;;;;;;32.87;20.83;;;2.30;99.90;;;;;;4882093;29;20236;-90
2020/12/09 03:48:00;;;;;;;32.17;20.13;;;2.50;99.90;;;;;;4881180;29;20436;-90
2020/12/09 03:50:27;;;;;;;33.07;19.53;;;2.50;99.90;;;;;;4880840;29;21018;-92
2020/12/09 03:52:53;;;;;;;29.47;18.17;;;2.50;99.90;;;;;;4881011;29;20462;-90
2020/12/09 03:55:20;;;;;;;29.50;17.43;;;2.50;99.90;;;;;;4881239;29;20432;-91
2020/12/09 03:57:46;;;;;;;33.10;19.00;;;2.50;99.90;;;;;;4880792;29;20487;-91
2020/12/09 04:00:13;;;;;;;32.93;18.13;;;2.30;99.90;;;;;;4881156;29;20836;-91
2020/12/09 04:02:39;;;;;;;32.47;19.40;;;2.40;99.90;;;;;;4880908;29;20459;-92
2020/12/09 04:05:06;;;;;;;30.47;18.93;;;2.40;99.90;;;;;;4881368;29;20455;-89
2020/12/09 04:07:33;;;;;;;30.73;18.83;;;2.50;99.90;;;;;;4881745;29;20448;-89
2020/12/09 04:09:59;;;;;;;32.43;19.30;;;2.50;99.90;;;;;;4881686;29;20483;-91
2020/12/09 04:12:26;;;;;;;30.00;18.93;;;2.40;99.90;;;;;;4880404;29;20462;-91
2020/12/09 04:14:53;;;;;;;32.83;19.00;;;2.50;99.90;;;;;;4880855;29;20440;-92
2020/12/09 04:17:20;;;;;;;31.93;19.20;;;2.60;99.90;;;;;;4880894;29;20456;-91
2020/12/09 04:19:47;;;;;;;30.47;18.03;;;2.50;99.90;;;;;;4881307;29;20452;-91
2020/12/09 04:22:14;;;;;;;30.73;18.07;;;2.60;99.90;;;;;;4880809;29;20436;-90
2020/12/09 04:24:41;;;;;;;33.23;18.60;;;2.50;99.90;;;;;;4880558;29;20959;-91
2020/12/09 04:27:08;;;;;;;31.00;18.17;;;2.50;99.90;;;;;;4881413;29;20463;-92
2020/12/09 04:29:34;;;;;;;29.23;19.10;;;2.50;99.90;;;;;;4881013;29;20488;-92
2020/12/09 04:32:01;;;;;;;29.53;17.80;;;2.40;99.90;;;;;;4881332;29;20482;-89
2020/12/09 04:34:27;;;;;;;29.50;17.80;;;2.40;99.90;;;;;;4880670;29;20447;-90
2020/12/09 04:36:55;;;;;;;29.57;18.43;;;2.40;99.90;;;;;;4880550;29;20456;-92
2020/12/09 04:39:22;;;;;;;32.43;17.77;;;2.40;99.90;;;;;;4849173;29;20454;-90
2020/12/09 04:41:49;;;;;;;29.60;17.83;;;2.40;99.90;;;;;;4880446;29;20562;-91
2020/12/09 04:44:16;;;;;;;33.40;18.53;;;2.40;99.90;;;;;;4881358;29;20451;-93
2020/12/09 04:46:46;;;;;;;29.80;17.97;;;2.30;99.90;;;;;;4880686;29;20436;-92
2020/12/09 04:49:15;;;;;;;27.83;16.83;;;2.20;99.90;;;;;;4881107;29;20538;-91
2020/12/09 04:52:32;;;;;;;28.60;17.13;;;2.20;99.90;;;;;;4880962;29;20484;-91
2020/12/09 04:55:08;;;;;;;26.47;15.30;;;2.30;99.90;;;;;;4842149;29;20966;-91
2020/12/09 04:58:02;;;;;;;28.90;17.23;;;2.30;99.90;;;;;;4841866;29;20496;-91
2020/12/09 05:00:30;;;;;;;29.70;17.77;;;2.10;99.90;;;;;;4869340;29;20490;-91
2020/12/09 05:03:13;;;;;;;31.23;17.63;;;2.20;99.90;;;;;;4880840;29;20471;-91
2020/12/09 05:05:40;;;;;;;33.60;19.30;;;2.20;99.90;;;;;;4882174;29;20542;-91
2020/12/09 05:08:11;;;;;;;27.23;17.10;;;2.20;99.90;;;;;;4882151;29;20456;-90
2020/12/09 05:10:47;;;;;;;31.67;18.87;;;2.30;99.90;;;;;;4881186;29;20501;-89
2020/12/09 05:13:21;;;;;;;27.37;16.50;;;2.30;99.90;;;;;;4883020;29;20447;-90
2020/12/09 05:15:51;;;;;;;30.57;17.90;;;2.30;99.90;;;;;;4884403;29;20459;-90
2020/12/09 05:18:35;;;;;;;26.20;16.03;;;2.20;99.90;;;;;;4888502;29;20501;-91
2020/12/09 05:21:19;;;;;;;23.73;14.47;;;2.20;99.90;;;;;;4883289;29;21009;-91
2020/12/09 05:23:49;;;;;;;26.27;16.03;;;2.00;99.90;;;;;;4882256;29;20485;-92
2020/12/09 05:26:21;;;;;;;23.70;13.37;;;2.00;99.90;;;;;;4884975;29;20482;-92
2020/12/09 05:28:48;;;;;;;23.93;15.10;;;1.90;99.90;;;;;;4884272;29;20463;-92
2020/12/09 05:31:22;;;;;;;24.03;15.57;;;1.70;99.90;;;;;;4884177;29;20979;-93
2020/12/09 05:33:48;;;;;;;24.63;14.23;;;1.70;99.90;;;;;;4884632;29;20447;-90
2020/12/09 05:36:15;;;;;;;26.57;14.80;;;1.60;99.90;;;;;;4892382;29;20471;-92
2020/12/09 05:38:42;;;;;;;24.57;13.67;;;1.70;99.90;;;;;;4885352;29;20919;-93
2020/12/09 05:41:12;;;;;;;25.37;14.87;;;1.70;99.90;;;;;;4884493;29;20463;-91
2020/12/09 05:43:44;;;;;;;25.37;15.30;;;1.70;99.90;;;;;;4891926;29;20982;-92
2020/12/09 05:46:10;;;;;;;26.23;14.50;;;1.70;99.90;;;;;;4887823;29;20500;-91
2020/12/09 05:48:37;;;;;;;35.88;19.98;;;1.70;99.90;;;;;;4885799;29;20507;-93
2020/12/09 05:51:06;;;;;;;26.07;17.47;;;1.70;99.90;;;;;;4872271;29;20248;-92
2020/12/09 05:53:36;;;;;;;27.30;17.13;;;1.80;99.90;;;;;;4887339;29;20498;-93
2020/12/09 05:56:15;;;;;;;24.90;14.70;;;1.80;99.90;;;;;;4887966;29;20496;-93
2020/12/09 05:58:46;;;;;;;25.00;14.40;;;1.90;99.90;;;;;;4887595;29;20431;-94
2020/12/09 06:01:15;;;;;;;31.73;14.93;;;1.90;99.90;;;;;;4886446;29;20514;-92
2020/12/09 06:03:44;;;;;;;29.47;15.90;;;2.00;99.90;;;;;;4884807;29;20880;-93
2020/12/09 06:06:13;;;;;;;24.67;14.10;;;2.10;99.90;;;;;;4884269;29;20814;-90
2020/12/09 06:08:42;;;;;;;26.23;14.83;;;2.20;99.90;;;;;;4885613;29;20471;-91
2020/12/09 06:11:09;;;;;;;25.80;14.93;;;2.20;99.90;;;;;;4886153;29;20499;-91
2020/12/09 06:13:36;;;;;;;32.10;14.20;;;2.10;99.90;;;;;;4886265;29;20432;-91
2020/12/09 06:16:04;;;;;;;24.93;13.10;;;2.20;99.90;;;;;;4886756;29;20511;-92
2020/12/09 06:18:32;;;;;;;29.47;14.70;;;2.10;99.90;;;;;;4885881;29;20459;-90
2020/12/09 06:20:59;;;;;;;27.70;15.47;;;2.10;99.90;;;;;;4884477;29;20479;-91
2020/12/09 06:23:27;;;;;;;31.50;16.00;;;2.10;99.90;;;;;;4884295;29;20515;-91
2020/12/09 06:25:55;;;;;;;32.17;16.90;;;2.00;99.90;;;;;;4884330;29;20459;-89
2020/12/09 06:28:23;;;;;;;31.07;16.30;;;2.10;99.90;;;;;;4867218;29;20963;-93
2020/12/09 06:30:51;;;;;;;30.50;18.07;;;2.10;99.90;;;;;;4884875;29;20495;-91
2020/12/09 06:33:37;;;;;;;38.67;19.57;;;2.10;99.90;;;;;;4884533;29;20452;-92
2020/12/09 06:36:21;;;;;;;38.60;17.67;;;2.10;99.90;;;;;;4884820;29;20444;-91
2020/12/09 06:39:21;;;;;;;29.80;17.27;;;2.00;99.90;;;;;;4884859;29;20545;-91
2020/12/09 06:42:10;;;;;;;31.63;18.17;;;2.00;99.90;;;;;;4828166;29;20489;-90
2020/12/09 06:44:50;;;;;;;31.27;17.80;;;1.80;99.90;;;;;;4828397;29;20454;-90
2020/12/09 06:47:16;;;;;;;26.50;15.87;;;1.80;99.90;;;;;;4865655;29;20507;-91
2020/12/09 06:49:45;;;;;;;32.13;16.77;;;1.70;99.90;;;;;;4886087;29;20450;-91
2020/12/09 06:52:32;;;;;;;40.10;16.20;;;1.70;99.90;;;;;;4885182;29;20443;-94
2020/12/09 06:54:59;;;;;;;28.70;16.33;;;1.90;99.90;;;;;;4884247;29;20448;-91
2020/12/09 06:57:29;;;;;;;38.37;17.80;;;1.80;99.90;;;;;;4882875;29;20574;-90
2020/12/09 07:00:17;;;;;;;31.60;16.07;;;1.70;99.90;;;;;;4883417;29;20454;-92
2020/12/09 07:02:46;;;;;;;36.27;17.43;;;1.70;99.90;;;;;;4883955;29;20439;-93
2020/12/09 07:05:15;;;;;;;31.90;16.73;;;1.70;99.90;;;;;;4882713;29;20444;-92
2020/12/09 07:07:49;;;;;;;29.60;17.10;;;1.70;99.90;;;;;;4883953;29;20538;-92
2020/12/09 07:10:26;;;;;;;35.47;18.70;;;1.90;99.90;;;;;;4887721;29;20519;-90
2020/12/09 07:13:21;;;;;;;42.03;19.40;;;1.90;99.90;;;;;;4886258;29;20471;-91
2020/12/09 07:15:51;;;;;;;47.83;19.20;;;1.90;99.90;;;;;;4888044;29;20455;-86
2020/12/09 07:18:20;;;;;;;41.40;19.33;;;1.90;99.90;;;;;;4892712;29;20543;-94
2020/12/09 07:20:53;;;;;;;44.90;21.30;;;1.80;99.90;;;;;;4892380;29;20472;-90
2020/12/09 07:26:25;;;;;;;44.83;21.33;;;1.80;99.90;;;;;;4889955;29;20504;-92
2020/12/09 07:28:55;;;;;;;45.27;20.20;;;1.70;99.90;;;;;;4890799;29;20455;-94
2020/12/09 07:31:30;;;;;;;45.93;20.63;;;1.80;99.90;;;;;;4892469;29;20495;-92
2020/12/09 07:34:12;;;;;;;46.53;21.27;;;1.80;99.90;;;;;;4891955;29;20507;-93
2020/12/09 07:36:52;;;;;;;52.83;24.57;;;1.90;99.90;;;;;;4891184;29;20931;-91
2020/12/09 07:39:41;;;;;;;55.87;24.13;;;2.00;99.90;;;;;;4889087;29;20526;-93
2020/12/09 07:42:18;;;;;;;55.70;25.70;;;1.90;99.90;;;;;;4888917;29;20463;-92
2020/12/09 07:44:52;;;;;;;54.00;25.27;;;2.00;99.90;;;;;;4887351;29;20460;-93
2020/12/09 07:47:24;;;;;;;63.90;26.60;;;1.80;99.90;;;;;;4886087;29;20427;-92
2020/12/09 07:49:52;;;;;;;59.47;25.00;;;1.80;99.90;;;;;;4886145;29;20463;-93
2020/12/09 07:52:22;;;;;;;64.70;26.97;;;1.90;99.90;;;;;;4887754;29;20444;-92
2020/12/09 07:54:52;;;;;;;58.93;26.97;;;2.00;99.90;;;;;;4887188;29;20924;-91
2020/12/09 07:57:19;;;;;;;59.87;24.30;;;2.00;99.90;;;;;;4887938;29;20515;-92
2020/12/09 07:59:46;;;;;;;55.10;25.57;;;1.90;99.90;;;;;;4887709;29;20444;-93
2020/12/09 08:02:19;;;;;;;50.63;23.90;;;1.80;99.90;;;;;;4887614;29;20927;-91
2020/12/09 08:05:05;;;;;;;53.30;23.70;;;1.90;99.90;;;;;;4886474;29;20483;-94
2020/12/09 08:07:32;;;;;;;51.97;23.33;;;1.90;99.90;;;;;;4887420;29;20451;-92
2020/12/09 08:10:10;;;;;;;55.30;24.40;;;1.80;99.90;;;;;;4887489;29;20548;-90
2020/12/09 08:12:38;;;;;;;60.43;24.87;;;1.90;99.90;;;;;;4888771;29;20984;-92
2020/12/09 08:15:06;;;;;;;60.97;24.83;;;2.00;99.90;;;;;;4888454;29;20473;-93
2020/12/09 08:17:33;;;;;;;58.13;23.67;;;1.90;99.90;;;;;;4884761;29;20424;-92
2020/12/09 08:20:06;;;;;;;50.67;22.20;;;1.90;99.90;;;;;;4884118;29;20523;-93
2020/12/09 08:22:37;;;;;;;54.83;22.67;;;1.90;99.90;;;;;;4885546;29;20476;-91
2020/12/09 08:25:09;;;;;;;44.27;22.00;;;1.90;99.90;;;;;;4885621;29;20519;-92
2020/12/09 08:27:40;;;;;;;60.47;32.58;;;2.00;99.90;;;;;;4870769;29;20485;-91
2020/12/09 08:30:12;;;;;;;53.03;24.10;;;2.20;99.90;;;;;;4861906;29;20240;-91
2020/12/09 08:33:16;;;;;;;49.37;23.07;;;2.20;99.90;;;;;;4862238;29;20447;-91
2020/12/09 08:35:51;;;;;;;51.83;21.97;;;2.20;99.90;;;;;;4805328;29;20455;-89
2020/12/09 08:38:30;;;;;;;54.10;22.83;;;2.10;99.90;;;;;;4855999;29;20443;-95
2020/12/09 08:40:59;;;;;;;51.73;24.30;;;1.90;99.90;;;;;;4863727;29;21077;-92
2020/12/09 08:43:27;;;;;;;46.83;21.80;;;2.00;99.90;;;;;;4846384;29;20452;-92
2020/12/09 08:45:53;;;;;;;44.93;21.30;;;2.10;99.90;;;;;;4862449;29;20429;-93
2020/12/09 08:48:20;;;;;;;57.90;24.63;;;2.10;99.90;;;;;;4863011;29;20528;-93
2020/12/09 08:50:47;;;;;;;45.87;23.67;;;2.20;99.90;;;;;;4862442;29;20500;-92
2020/12/09 08:53:14;;;;;;;41.67;20.93;;;2.10;99.90;;;;;;4863319;29;20552;-91
2020/12/09 08:55:42;;;;;;;46.60;21.57;;;2.20;99.90;;;;;;4864843;29;20543;-92
2020/12/09 08:58:09;;;;;;;41.10;21.20;;;2.10;99.90;;;;;;4866643;29;20492;-92
2020/12/09 09:00:38;;;;;;;42.80;22.13;;;2.10;99.90;;;;;;4867956;29;20503;-92
2020/12/09 09:03:05;;;;;;;47.70;22.50;;;2.20;99.90;;;;;;4868017;29;20551;-92
2020/12/09 09:05:32;;;;;;;46.80;22.23;;;2.30;99.90;;;;;;4873998;29;20447;-92
2020/12/09 09:07:58;;;;;;;46.23;23.47;;;2.40;99.90;;;;;;4900998;29;21015;-94
2020/12/09 09:10:25;;;;;;;48.30;22.73;;;2.30;99.90;;;;;;4904716;29;20494;-93
2020/12/09 09:12:52;;;;;;;48.60;23.67;;;2.30;99.90;;;;;;4905773;29;20541;-90
2020/12/09 09:15:19;;;;;;;53.43;23.43;;;2.40;99.90;;;;;;4904137;29;20454;-93
2020/12/09 09:17:45;;;;;;;51.47;25.03;;;2.30;99.90;;;;;;4907199;29;20482;-91
2020/12/09 09:20:12;;;;;;;47.13;23.23;;;2.50;99.90;;;;;;4903938;29;20990;-93
2020/12/09 09:22:38;;;;;;;50.50;24.87;;;2.50;99.90;;;;;;4904842;29;20539;-92
2020/12/09 09:25:05;;;;;;;50.20;22.60;;;2.50;99.90;;;;;;4905905;29;20455;-93
2020/12/09 09:27:32;;;;;;;48.23;22.27;;;2.70;99.90;;;;;;4905570;29;20525;-93
2020/12/09 09:30:00;;;;;;;48.77;24.97;;;2.60;99.90;;;;;;4905919;29;20489;-92
2020/12/09 09:32:27;;;;;;;48.57;23.20;;;2.60;99.90;;;;;;4909333;29;20431;-92
2020/12/09 09:34:59;;;;;;;56.43;25.83;;;2.60;99.90;;;;;;4912311;29;20442;-90
2020/12/09 09:37:28;;;;;;;54.27;26.20;;;2.50;99.90;;;;;;4916630;29;20419;-95
2020/12/09 09:39:54;;;;;;;54.70;23.23;;;2.50;99.90;;;;;;4906557;29;20458;-92
2020/12/09 09:42:21;;;;;;;52.97;25.00;;;2.60;99.90;;;;;;4907310;29;20450;-92
2020/12/09 09:44:48;;;;;;;44.30;23.20;;;2.70;99.90;;;;;;4904630;29;20911;-93
2020/12/09 09:47:16;;;;;;;57.93;25.20;;;2.90;99.90;;;;;;4908046;29;20514;-91
2020/12/09 09:49:43;;;;;;;54.43;26.07;;;2.60;99.90;;;;;;4903015;29;20441;-93
2020/12/09 09:52:10;;;;;;;61.70;27.50;;;2.50;99.90;;;;;;4902601;29;20929;-92
2020/12/09 09:54:36;;;;;;;59.77;28.57;;;2.50;99.90;;;;;;4903163;29;21041;-92
2020/12/09 09:57:04;;;;;;;63.00;30.33;;;2.50;99.90;;;;;;4903751;29;20490;-91
2020/12/09 09:59:32;;;;;;;62.50;28.07;;;2.50;99.90;;;;;;4904104;29;20454;-95
2020/12/09 10:01:59;;;;;;;71.03;30.83;;;2.50;99.90;;;;;;4905084;29;20562;-91
2020/12/09 10:04:27;;;;;;;81.28;41.92;;;2.40;99.90;;;;;;4904361;29;20510;-92
2020/12/09 10:06:53;;;;;;;66.20;34.33;;;2.50;99.90;;;;;;4890583;29;20228;-92
2020/12/09 10:09:20;;;;;;;59.70;28.90;;;2.70;99.90;;;;;;4885071;29;20489;-90
2020/12/09 10:11:47;;;;;;;41.03;20.87;;;2.60;99.90;;;;;;4885038;29;20976;-95
2020/12/09 10:14:14;;;;;;;43.53;20.70;;;2.50;99.90;;;;;;4885345;29;20470;-93
2020/12/09 10:16:43;;;;;;;30.67;15.73;;;2.50;99.90;;;;;;4884398;29;21037;-92
2020/12/09 10:19:10;;;;;;;31.13;15.47;;;2.50;99.90;;;;;;4884622;29;20943;-96
2020/12/09 10:21:38;;;;;;;25.53;13.90;;;2.60;99.90;;;;;;4883646;29;20504;-91
2020/12/09 10:24:05;;;;;;;45.13;15.03;;;2.60;99.90;;;;;;4884672;29;20550;-92
2020/12/09 10:26:33;;;;;;;21.77;12.70;;;2.70;99.90;;;;;;4883911;29;20471;-89
2020/12/09 10:29:01;;;;;;;24.33;13.77;;;2.70;99.90;;;;;;4882944;29;20462;-88
2020/12/09 10:31:35;;;;;;;21.20;13.53;;;2.90;99.90;;;;;;4883706;29;20590;-92
2020/12/09 10:34:02;;;;;;;25.50;13.70;;;3.00;99.90;;;;;;4882432;29;20455;-89
2020/12/09 10:36:29;;;;;;;24.37;13.80;;;3.20;99.90;;;;;;4892465;29;20447;-91
2020/12/09 10:38:56;;;;;;;19.57;12.40;;;3.30;99.90;;;;;;4900627;29;21010;-88
2020/12/09 10:41:22;;;;;;;22.90;12.33;;;3.30;99.90;;;;;;4883513;29;20980;-92
2020/12/09 10:43:51;;;;;;;20.20;11.50;;;3.10;99.90;;;;;;4883203;29;20451;-92
2020/12/09 10:46:18;;;;;;;21.30;11.07;;;3.10;99.90;;;;;;4883551;29;20814;-90
2020/12/09 10:48:44;;;;;;;20.73;10.03;;;3.10;99.90;;;;;;4882380;29;20467;-91
2020/12/09 10:51:10;;;;;;;17.70;10.27;;;3.20;99.90;;;;;;4881821;29;20870;-90
2020/12/09 10:53:37;;;;;;;15.77;10.93;;;3.20;99.90;;;;;;4881969;29;20463;-91
2020/12/09 10:56:04;;;;;;;15.23;9.93;;;3.20;99.90;;;;;;4882154;29;20464;-89
2020/12/09 10:58:31;;;;;;;14.00;9.90;;;3.20;99.90;;;;;;4882056;29;20491;-90
2020/12/09 11:00:58;;;;;;;19.50;10.67;;;3.30;99.90;;;;;;4885949;29;20471;-90
2020/12/09 11:03:25;;;;;;;14.90;9.10;;;3.20;99.90;;;;;;4883445;29;20482;-90
2020/12/09 11:05:52;;;;;;;13.70;8.93;;;3.30;99.90;;;;;;4884558;29;20448;-89
2020/12/09 11:08:18;;;;;;;14.37;8.83;;;3.30;99.90;;;;;;4883068;29;20448;-91
2020/12/09 11:10:45;;;;;;;13.43;9.57;;;3.20;99.90;;;;;;4881530;29;20501;-91
2020/12/09 11:13:12;;;;;;;15.47;9.67;;;3.20;99.90;;;;;;4881674;29;20957;-90
2020/12/09 11:15:38;;;;;;;16.57;10.07;;;3.30;99.90;;;;;;4881476;29;20462;-92
2020/12/09 11:18:05;;;;;;;12.80;8.70;;;3.30;99.90;;;;;;4881479;29;20963;-89
2020/12/09 11:20:33;;;;;;;14.37;9.40;;;3.20;99.90;;;;;;4880935;29;20960;-91
2020/12/09 11:23:00;;;;;;;13.40;9.33;;;3.20;99.90;;;;;;4881370;29;20460;-91
2020/12/09 11:25:26;;;;;;;14.43;9.33;;;3.40;99.90;;;;;;4883577;29;20982;-88
2020/12/09 11:27:53;;;;;;;12.37;8.73;;;3.50;99.90;;;;;;4883487;29;20464;-87
2020/12/09 11:30:20;;;;;;;19.53;9.93;;;3.50;99.90;;;;;;4883058;29;20486;-88
2020/12/09 11:32:46;;;;;;;13.93;9.13;;;3.50;99.90;;;;;;4882505;29;20444;-88
2020/12/09 11:35:13;;;;;;;14.93;9.60;;;3.50;99.90;;;;;;4882930;29;20472;-88
2020/12/09 11:37:39;;;;;;;13.63;9.07;;;3.60;99.90;;;;;;4882607;29;20543;-87
2020/12/09 11:40:06;;;;;;;12.97;9.33;;;3.80;99.90;;;;;;4883645;29;20483;-86
2020/12/09 11:42:38;;;;;;;13.73;9.77;;;3.80;99.90;;;;;;4882757;29;20495;-87
2020/12/09 11:45:06;;;;;;;13.97;9.10;;;3.80;99.90;;;;;;4882433;29;20535;-86
2020/12/09 11:47:34;;;;;;;11.00;8.77;;;3.80;99.90;;;;;;4882471;29;20538;-87
2020/12/09 11:50:01;;;;;;;12.23;8.83;;;3.80;99.90;;;;;;4883099;29;20450;-88
2020/12/09 11:52:28;;;;;;;14.87;8.90;;;3.80;99.90;;;;;;4881913;29;20498;-90
2020/12/09 11:54:54;;;;;;;13.07;8.83;;;3.80;99.90;;;;;;4882929;29;20452;-87
2020/12/09 11:57:20;;;;;;;11.93;8.57;;;4.00;99.90;;;;;;4896031;29;20547;-89
2020/12/09 11:59:47;;;;;;;12.20;8.43;;;4.10;99.90;;;;;;4889982;29;21008;-91
2020/12/09 12:02:13;;;;;;;12.13;8.77;;;3.90;99.90;;;;;;4888207;29;20448;-87
2020/12/09 12:04:41;;;;;;;12.93;9.43;;;3.90;99.90;;;;;;4883016;29;20462;-86
2020/12/09 12:07:08;;;;;;;15.40;10.53;;;4.10;99.90;;;;;;4881778;29;20459;-89
2020/12/09 12:09:35;;;;;;;12.87;8.63;;;4.00;99.90;;;;;;4881165;29;20440;-88
2020/12/09 12:12:01;;;;;;;13.70;9.37;;;3.90;99.90;;;;;;4881204;29;20495;-88
2020/12/09 12:14:27;;;;;;;17.52;12.70;;;3.90;99.90;;;;;;4880609;29;20440;-86
2020/12/09 12:16:54;;;;;;;13.33;9.53;;;4.00;99.90;;;;;;4882326;29;20228;-86
2020/12/09 12:19:20;;;;;;;16.33;8.83;;;4.10;99.90;;;;;;4881367;29;20448;-88
2020/12/09 12:21:51;;;;;;;14.50;9.30;;;4.00;99.90;;;;;;4880754;29;20561;-87
2020/12/09 12:24:17;;;;;;;12.27;7.67;;;4.10;99.90;;;;;;4881134;29;20458;-87
2020/12/09 12:26:44;;;;;;;12.80;9.00;;;4.10;99.90;;;;;;4880291;29;20475;-87
2020/12/09 12:29:10;;;;;;;13.37;7.77;;;4.10;99.90;;;;;;4881082;29;20455;-87
2020/12/09 12:31:37;;;;;;;16.37;9.37;;;4.10;99.90;;;;;;4880432;29;20517;-89
2020/12/09 12:34:03;;;;;;;10.87;8.00;;;4.20;99.90;;;;;;4884473;29;20484;-88
2020/12/09 12:36:29;;;;;;;13.40;7.93;;;4.20;99.90;;;;;;4884833;29;20454;-87
2020/12/09 12:38:57;;;;;;;12.33;7.43;;;4.30;99.90;;;;;;4884385;29;20452;-88
2020/12/09 12:41:23;;;;;;;11.60;7.73;;;4.40;99.90;;;;;;4884771;29;20562;-87
2020/12/09 12:43:51;;;;;;;11.97;7.53;;;4.20;99.90;;;;;;4884452;29;20436;-89
2020/12/09 12:46:18;;;;;;;11.67;7.50;;;4.30;99.90;;;;;;4884668;29;20554;-87
2020/12/09 12:48:44;;;;;;;14.50;8.53;;;4.20;99.90;;;;;;4884626;29;20496;-92